sensor_id;sensor_type;location;lat;lon;timestamp;P1;durP1;ratioP1;P2;durP2;ratioP2
35290;SDS011;21411;50.024;19.220;2023-11-22T00:02:16;20.50;;;16.90;;
35290;SDS011;21411;50.024;19.220;2023-11-22T00:04:43;18.20;;;15.80;;
35290;SDS011;21411;50.024;19.220;2023-11-22T00:07:10;19.40;;;16.60;;
35290;SDS011;21411;50.024;19.220;2023-11-22T00:09:37;20.00;;;16.10;;
35290;SDS011;21411;50.024;19.220;2023-11-22T00:12:04;18.60;;;16.60;;
35290;SDS011;21411;50.024;19.220;2023-11-22T00:14:31;19.30;;;16.20;;
35290;SDS011;21411;50.024;19.220;2023-11-22T00:16:57;19.10;;;16.40;;
35290;SDS011;21411;50.024;19.220;2023-11-22T00:19:24;18.40;;;16.50;;
35290;SDS011;21411;50.024;19.220;2023-11-22T00:21:51;20.50;;;16.10;;
35290;SDS011;21411;50.024;19.220;2023-11-22T00:24:18;21.40;;;17.50;;
35290;SDS011;21411;50.024;19.220;2023-11-22T00:26:44;19.00;;;15.80;;
35290;SDS011;21411;50.024;19.220;2023-11-22T00:29:12;19.00;;;16.20;;
35290;SDS011;21411;50.024;19.220;2023-11-22T00:31:38;20.60;;;17.80;;
35290;SDS011;21411;50.024;19.220;2023-11-22T00:34:06;22.60;;;17.90;;
35290;SDS011;21411;50.024;19.220;2023-11-22T00:36:33;20.40;;;17.40;;
35290;SDS011;21411;50.024;19.220;2023-11-22T00:39:00;21.00;;;17.80;;
35290;SDS011;21411;50.024;19.220;2023-11-22T00:41:30;22.30;;;18.20;;
35290;SDS011;21411;50.024;19.220;2023-11-22T00:43:58;23.20;;;18.80;;
35290;SDS011;21411;50.024;19.220;2023-11-22T00:46:24;18.90;;;16.60;;
35290;SDS011;21411;50.024;19.220;2023-11-22T00:48:51;19.50;;;16.90;;
35290;SDS011;21411;50.024;19.220;2023-11-22T00:51:18;20.80;;;17.20;;
35290;SDS011;21411;50.024;19.220;2023-11-22T00:53:46;19.80;;;17.10;;
35290;SDS011;21411;50.024;19.220;2023-11-22T00:56:12;21.70;;;18.60;;
35290;SDS011;21411;50.024;19.220;2023-11-22T00:58:39;21.00;;;18.00;;
35290;SDS011;21411;50.024;19.220;2023-11-22T01:01:06;20.00;;;17.30;;
35290;SDS011;21411;50.024;19.220;2023-11-22T01:03:32;20.80;;;17.50;;
35290;SDS011;21411;50.024;19.220;2023-11-22T01:06:00;20.10;;;16.70;;
35290;SDS011;21411;50.024;19.220;2023-11-22T01:08:27;20.90;;;17.90;;
35290;SDS011;21411;50.024;19.220;2023-11-22T01:10:53;20.60;;;18.40;;
35290;SDS011;21411;50.024;19.220;2023-11-22T01:13:20;22.80;;;17.40;;
35290;SDS011;21411;50.024;19.220;2023-11-22T01:15:48;20.50;;;17.60;;
35290;SDS011;21411;50.024;19.220;2023-11-22T01:18:15;21.60;;;18.00;;
35290;SDS011;21411;50.024;19.220;2023-11-22T01:20:41;23.50;;;19.30;;
35290;SDS011;21411;50.024;19.220;2023-11-22T01:23:08;20.10;;;16.60;;
35290;SDS011;21411;50.024;19.220;2023-11-22T01:25:34;21.30;;;17.30;;
35290;SDS011;21411;50.024;19.220;2023-11-22T01:28:01;21.70;;;17.10;;
35290;SDS011;21411;50.024;19.220;2023-11-22T01:30:28;19.60;;;16.30;;
35290;SDS011;21411;50.024;19.220;2023-11-22T01:32:55;20.60;;;17.20;;
35290;SDS011;21411;50.024;19.220;2023-11-22T01:35:21;21.50;;;17.70;;
35290;SDS011;21411;50.024;19.220;2023-11-22T01:37:48;21.10;;;18.80;;
35290;SDS011;21411;50.024;19.220;2023-11-22T01:40:15;22.90;;;18.80;;
35290;SDS011;21411;50.024;19.220;2023-11-22T01:42:42;24.80;;;20.20;;
35290;SDS011;21411;50.024;19.220;2023-11-22T01:45:09;24.10;;;20.20;;
35290;SDS011;21411;50.024;19.220;2023-11-22T01:47:36;26.30;;;19.40;;
35290;SDS011;21411;50.024;19.220;2023-11-22T01:50:04;23.10;;;18.70;;
35290;SDS011;21411;50.024;19.220;2023-11-22T01:52:33;22.30;;;19.40;;
35290;SDS011;21411;50.024;19.220;2023-11-22T01:55:00;24.30;;;20.00;;
35290;SDS011;21411;50.024;19.220;2023-11-22T01:57:33;22.90;;;18.00;;
35290;SDS011;21411;50.024;19.220;2023-11-22T02:00:01;22.50;;;19.10;;
35290;SDS011;21411;50.024;19.220;2023-11-22T02:02:30;22.80;;;19.20;;
35290;SDS011;21411;50.024;19.220;2023-11-22T02:04:57;23.70;;;19.50;;
35290;SDS011;21411;50.024;19.220;2023-11-22T02:07:24;24.10;;;18.60;;
35290;SDS011;21411;50.024;19.220;2023-11-22T02:09:53;22.00;;;19.60;;
35290;SDS011;21411;50.024;19.220;2023-11-22T02:12:20;25.50;;;20.10;;
35290;SDS011;21411;50.024;19.220;2023-11-22T02:14:47;22.30;;;18.40;;
35290;SDS011;21411;50.024;19.220;2023-11-22T02:17:14;23.50;;;19.50;;
35290;SDS011;21411;50.024;19.220;2023-11-22T02:19:41;24.10;;;19.70;;
35290;SDS011;21411;50.024;19.220;2023-11-22T02:22:07;27.30;;;20.40;;
35290;SDS011;21411;50.024;19.220;2023-11-22T02:24:34;24.00;;;20.60;;
35290;SDS011;21411;50.024;19.220;2023-11-22T02:27:00;23.30;;;19.60;;
35290;SDS011;21411;50.024;19.220;2023-11-22T02:29:27;23.30;;;19.40;;
35290;SDS011;21411;50.024;19.220;2023-11-22T02:31:54;24.00;;;19.60;;
35290;SDS011;21411;50.024;19.220;2023-11-22T02:34:21;26.40;;;19.80;;
35290;SDS011;21411;50.024;19.220;2023-11-22T02:36:47;26.30;;;20.00;;
35290;SDS011;21411;50.024;19.220;2023-11-22T02:39:15;25.50;;;20.30;;
35290;SDS011;21411;50.024;19.220;2023-11-22T02:41:42;23.50;;;20.20;;
35290;SDS011;21411;50.024;19.220;2023-11-22T02:44:09;25.00;;;19.20;;
35290;SDS011;21411;50.024;19.220;2023-11-22T02:46:35;25.00;;;19.60;;
35290;SDS011;21411;50.024;19.220;2023-11-22T02:49:02;24.60;;;19.30;;
35290;SDS011;21411;50.024;19.220;2023-11-22T02:51:30;25.20;;;19.30;;
35290;SDS011;21411;50.024;19.220;2023-11-22T02:53:57;26.20;;;19.80;;
35290;SDS011;21411;50.024;19.220;2023-11-22T02:56:23;28.00;;;20.80;;
35290;SDS011;21411;50.024;19.220;2023-11-22T02:58:50;26.50;;;22.00;;
35290;SDS011;21411;50.024;19.220;2023-11-22T03:01:17;25.90;;;20.60;;
35290;SDS011;21411;50.024;19.220;2023-11-22T03:03:44;26.90;;;21.40;;
35290;SDS011;21411;50.024;19.220;2023-11-22T03:06:10;27.60;;;22.20;;
35290;SDS011;21411;50.024;19.220;2023-11-22T03:08:37;24.50;;;19.10;;
35290;SDS011;21411;50.024;19.220;2023-11-22T03:11:04;28.10;;;20.40;;
35290;SDS011;21411;50.024;19.220;2023-11-22T03:13:30;25.80;;;21.40;;
35290;SDS011;21411;50.024;19.220;2023-11-22T03:15:57;29.00;;;21.60;;
35290;SDS011;21411;50.024;19.220;2023-11-22T03:18:23;25.10;;;21.40;;
35290;SDS011;21411;50.024;19.220;2023-11-22T03:20:50;28.40;;;21.40;;
35290;SDS011;21411;50.024;19.220;2023-11-22T03:23:20;27.60;;;22.00;;
35290;SDS011;21411;50.024;19.220;2023-11-22T03:25:47;25.50;;;21.80;;
35290;SDS011;21411;50.024;19.220;2023-11-22T03:28:14;28.20;;;23.20;;
35290;SDS011;21411;50.024;19.220;2023-11-22T03:30:41;27.80;;;22.80;;
35290;SDS011;21411;50.024;19.220;2023-11-22T03:33:08;31.10;;;23.60;;
35290;SDS011;21411;50.024;19.220;2023-11-22T03:35:34;28.50;;;21.90;;
35290;SDS011;21411;50.024;19.220;2023-11-22T03:38:02;28.60;;;22.20;;
35290;SDS011;21411;50.024;19.220;2023-11-22T03:40:29;27.50;;;22.00;;
35290;SDS011;21411;50.024;19.220;2023-11-22T03:42:55;29.40;;;22.40;;
35290;SDS011;21411;50.024;19.220;2023-11-22T03:45:22;28.90;;;23.00;;
35290;SDS011;21411;50.024;19.220;2023-11-22T03:47:48;33.40;;;24.30;;
35290;SDS011;21411;50.024;19.220;2023-11-22T03:50:15;27.60;;;22.40;;
35290;SDS011;21411;50.024;19.220;2023-11-22T03:52:42;41.70;;;23.20;;
35290;SDS011;21411;50.024;19.220;2023-11-22T03:55:09;28.00;;;21.80;;
35290;SDS011;21411;50.024;19.220;2023-11-22T03:57:36;30.70;;;22.00;;
35290;SDS011;21411;50.024;19.220;2023-11-22T04:00:03;28.20;;;21.40;;
35290;SDS011;21411;50.024;19.220;2023-11-22T04:02:32;31.70;;;22.40;;
35290;SDS011;21411;50.024;19.220;2023-11-22T04:04:59;31.70;;;23.70;;
35290;SDS011;21411;50.024;19.220;2023-11-22T04:07:26;29.80;;;22.10;;
35290;SDS011;21411;50.024;19.220;2023-11-22T04:09:52;34.50;;;24.90;;
35290;SDS011;21411;50.024;19.220;2023-11-22T04:12:20;36.60;;;25.70;;
35290;SDS011;21411;50.024;19.220;2023-11-22T04:14:46;35.40;;;25.50;;
35290;SDS011;21411;50.024;19.220;2023-11-22T04:17:13;35.60;;;26.00;;
35290;SDS011;21411;50.024;19.220;2023-11-22T04:19:39;34.90;;;25.50;;
35290;SDS011;21411;50.024;19.220;2023-11-22T04:22:06;37.10;;;26.20;;
35290;SDS011;21411;50.024;19.220;2023-11-22T04:24:32;34.40;;;24.20;;
35290;SDS011;21411;50.024;19.220;2023-11-22T04:26:59;35.50;;;26.30;;
35290;SDS011;21411;50.024;19.220;2023-11-22T04:29:26;37.90;;;27.90;;
35290;SDS011;21411;50.024;19.220;2023-11-22T04:31:53;38.00;;;26.90;;
35290;SDS011;21411;50.024;19.220;2023-11-22T04:34:19;34.10;;;24.30;;
35290;SDS011;21411;50.024;19.220;2023-11-22T04:36:46;33.10;;;24.90;;
35290;SDS011;21411;50.024;19.220;2023-11-22T04:39:13;35.60;;;26.30;;
35290;SDS011;21411;50.024;19.220;2023-11-22T04:41:40;41.20;;;28.40;;
35290;SDS011;21411;50.024;19.220;2023-11-22T04:44:06;37.50;;;28.00;;
35290;SDS011;21411;50.024;19.220;2023-11-22T04:46:33;40.90;;;27.80;;
35290;SDS011;21411;50.024;19.220;2023-11-22T04:49:00;34.00;;;24.50;;
35290;SDS011;21411;50.024;19.220;2023-11-22T04:51:27;31.80;;;23.80;;
35290;SDS011;21411;50.024;19.220;2023-11-22T04:53:55;34.70;;;24.30;;
35290;SDS011;21411;50.024;19.220;2023-11-22T04:56:22;30.70;;;22.70;;
35290;SDS011;21411;50.024;19.220;2023-11-22T04:58:49;32.20;;;24.10;;
35290;SDS011;21411;50.024;19.220;2023-11-22T05:01:16;33.00;;;25.70;;
35290;SDS011;21411;50.024;19.220;2023-11-22T05:03:42;35.40;;;26.90;;
35290;SDS011;21411;50.024;19.220;2023-11-22T05:06:09;30.30;;;23.50;;
35290;SDS011;21411;50.024;19.220;2023-11-22T05:08:36;32.60;;;23.30;;
35290;SDS011;21411;50.024;19.220;2023-11-22T05:11:03;31.70;;;23.30;;
35290;SDS011;21411;50.024;19.220;2023-11-22T05:13:30;29.50;;;21.20;;
35290;SDS011;21411;50.024;19.220;2023-11-22T05:15:57;32.90;;;25.00;;
35290;SDS011;21411;50.024;19.220;2023-11-22T05:18:24;28.00;;;21.30;;
35290;SDS011;21411;50.024;19.220;2023-11-22T05:20:51;30.30;;;23.10;;
35290;SDS011;21411;50.024;19.220;2023-11-22T05:23:18;29.60;;;21.80;;
35290;SDS011;21411;50.024;19.220;2023-11-22T05:25:44;34.30;;;24.30;;
35290;SDS011;21411;50.024;19.220;2023-11-22T05:28:11;28.90;;;22.30;;
35290;SDS011;21411;50.024;19.220;2023-11-22T05:30:38;30.00;;;21.30;;
35290;SDS011;21411;50.024;19.220;2023-11-22T05:33:05;32.20;;;25.00;;
35290;SDS011;21411;50.024;19.220;2023-11-22T05:35:31;31.20;;;22.40;;
35290;SDS011;21411;50.024;19.220;2023-11-22T05:37:58;32.90;;;23.60;;
35290;SDS011;21411;50.024;19.220;2023-11-22T05:40:25;35.10;;;24.10;;
35290;SDS011;21411;50.024;19.220;2023-11-22T05:42:51;36.40;;;23.60;;
35290;SDS011;21411;50.024;19.220;2023-11-22T05:45:18;32.50;;;22.90;;
35290;SDS011;21411;50.024;19.220;2023-11-22T05:47:45;31.70;;;22.00;;
35290;SDS011;21411;50.024;19.220;2023-11-22T05:50:11;31.30;;;22.40;;
35290;SDS011;21411;50.024;19.220;2023-11-22T05:52:38;34.00;;;23.00;;
35290;SDS011;21411;50.024;19.220;2023-11-22T05:55:05;32.50;;;23.30;;
35290;SDS011;21411;50.024;19.220;2023-11-22T05:57:34;33.30;;;22.50;;
35290;SDS011;21411;50.024;19.220;2023-11-22T06:00:01;36.20;;;25.10;;
35290;SDS011;21411;50.024;19.220;2023-11-22T06:02:29;33.10;;;23.80;;
35290;SDS011;21411;50.024;19.220;2023-11-22T06:04:55;33.70;;;24.50;;
35290;SDS011;21411;50.024;19.220;2023-11-22T06:07:22;28.90;;;21.40;;
35290;SDS011;21411;50.024;19.220;2023-11-22T06:09:49;30.90;;;22.60;;
35290;SDS011;21411;50.024;19.220;2023-11-22T06:12:15;31.20;;;24.00;;
35290;SDS011;21411;50.024;19.220;2023-11-22T06:14:42;29.60;;;21.40;;
35290;SDS011;21411;50.024;19.220;2023-11-22T06:17:09;30.30;;;22.20;;
35290;SDS011;21411;50.024;19.220;2023-11-22T06:19:37;33.70;;;23.30;;
35290;SDS011;21411;50.024;19.220;2023-11-22T06:22:04;32.50;;;24.30;;
35290;SDS011;21411;50.024;19.220;2023-11-22T06:24:30;36.50;;;24.60;;
35290;SDS011;21411;50.024;19.220;2023-11-22T06:26:59;40.80;;;27.20;;
35290;SDS011;21411;50.024;19.220;2023-11-22T06:29:26;36.80;;;25.80;;
35290;SDS011;21411;50.024;19.220;2023-11-22T06:31:53;43.30;;;27.10;;
35290;SDS011;21411;50.024;19.220;2023-11-22T06:34:20;33.40;;;22.40;;
35290;SDS011;21411;50.024;19.220;2023-11-22T06:36:46;34.10;;;24.40;;
35290;SDS011;21411;50.024;19.220;2023-11-22T06:39:13;32.80;;;22.80;;
35290;SDS011;21411;50.024;19.220;2023-11-22T06:41:41;32.40;;;23.40;;
35290;SDS011;21411;50.024;19.220;2023-11-22T06:44:08;28.30;;;20.90;;
35290;SDS011;21411;50.024;19.220;2023-11-22T06:46:35;36.10;;;23.60;;
35290;SDS011;21411;50.024;19.220;2023-11-22T06:49:02;33.00;;;23.10;;
35290;SDS011;21411;50.024;19.220;2023-11-22T06:51:29;34.90;;;23.00;;
35290;SDS011;21411;50.024;19.220;2023-11-22T06:53:56;33.60;;;24.40;;
35290;SDS011;21411;50.024;19.220;2023-11-22T06:56:23;30.30;;;21.90;;
35290;SDS011;21411;50.024;19.220;2023-11-22T06:58:49;31.30;;;24.00;;
35290;SDS011;21411;50.024;19.220;2023-11-22T07:01:17;29.40;;;20.60;;
35290;SDS011;21411;50.024;19.220;2023-11-22T07:03:45;28.20;;;21.60;;
35290;SDS011;21411;50.024;19.220;2023-11-22T07:06:12;29.10;;;21.10;;
35290;SDS011;21411;50.024;19.220;2023-11-22T07:08:38;30.60;;;22.60;;
35290;SDS011;21411;50.024;19.220;2023-11-22T07:11:05;32.70;;;22.80;;
35290;SDS011;21411;50.024;19.220;2023-11-22T07:13:36;33.90;;;23.80;;
35290;SDS011;21411;50.024;19.220;2023-11-22T07:16:05;31.20;;;23.40;;
35290;SDS011;21411;50.024;19.220;2023-11-22T07:18:33;33.30;;;22.50;;
35290;SDS011;21411;50.024;19.220;2023-11-22T07:21:00;36.80;;;24.20;;
35290;SDS011;21411;50.024;19.220;2023-11-22T07:23:26;34.80;;;23.10;;
35290;SDS011;21411;50.024;19.220;2023-11-22T07:25:55;36.10;;;24.00;;
35290;SDS011;21411;50.024;19.220;2023-11-22T07:28:22;34.60;;;23.30;;
35290;SDS011;21411;50.024;19.220;2023-11-22T07:30:49;35.60;;;24.80;;
35290;SDS011;21411;50.024;19.220;2023-11-22T07:33:15;35.10;;;24.50;;
35290;SDS011;21411;50.024;19.220;2023-11-22T07:35:42;35.20;;;23.80;;
35290;SDS011;21411;50.024;19.220;2023-11-22T07:38:09;32.90;;;23.30;;
35290;SDS011;21411;50.024;19.220;2023-11-22T07:40:37;37.60;;;25.00;;
35290;SDS011;21411;50.024;19.220;2023-11-22T07:43:04;34.20;;;22.60;;
35290;SDS011;21411;50.024;19.220;2023-11-22T07:45:31;31.30;;;22.60;;
35290;SDS011;21411;50.024;19.220;2023-11-22T07:48:00;29.40;;;20.50;;
35290;SDS011;21411;50.024;19.220;2023-11-22T07:50:27;32.70;;;22.30;;
35290;SDS011;21411;50.024;19.220;2023-11-22T07:52:53;32.30;;;22.60;;
35290;SDS011;21411;50.024;19.220;2023-11-22T07:55:21;30.10;;;22.40;;
35290;SDS011;21411;50.024;19.220;2023-11-22T07:57:48;27.60;;;20.40;;
35290;SDS011;21411;50.024;19.220;2023-11-22T08:00:17;30.10;;;20.50;;
35290;SDS011;21411;50.024;19.220;2023-11-22T08:02:45;27.90;;;20.90;;
35290;SDS011;21411;50.024;19.220;2023-11-22T08:05:12;27.60;;;20.50;;
35290;SDS011;21411;50.024;19.220;2023-11-22T08:07:42;30.00;;;20.60;;
35290;SDS011;21411;50.024;19.220;2023-11-22T08:10:10;27.10;;;19.70;;
35290;SDS011;21411;50.024;19.220;2023-11-22T08:12:45;26.90;;;18.80;;
35290;SDS011;21411;50.024;19.220;2023-11-22T08:15:14;30.10;;;21.70;;
35290;SDS011;21411;50.024;19.220;2023-11-22T08:17:42;31.10;;;21.60;;
35290;SDS011;21411;50.024;19.220;2023-11-22T08:20:09;30.50;;;21.60;;
35290;SDS011;21411;50.024;19.220;2023-11-22T08:25:07;28.60;;;21.20;;
35290;SDS011;21411;50.024;19.220;2023-11-22T08:27:35;29.00;;;20.50;;
35290;SDS011;21411;50.024;19.220;2023-11-22T08:30:01;27.00;;;19.40;;
35290;SDS011;21411;50.024;19.220;2023-11-22T08:32:31;29.30;;;21.10;;
35290;SDS011;21411;50.024;19.220;2023-11-22T08:34:58;31.10;;;21.60;;
35290;SDS011;21411;50.024;19.220;2023-11-22T08:37:24;29.80;;;21.30;;
35290;SDS011;21411;50.024;19.220;2023-11-22T08:39:51;31.30;;;21.40;;
35290;SDS011;21411;50.024;19.220;2023-11-22T08:42:18;30.80;;;23.10;;
35290;SDS011;21411;50.024;19.220;2023-11-22T08:44:44;30.20;;;22.20;;
35290;SDS011;21411;50.024;19.220;2023-11-22T08:47:11;27.70;;;21.60;;
35290;SDS011;21411;50.024;19.220;2023-11-22T08:49:39;28.60;;;20.60;;
35290;SDS011;21411;50.024;19.220;2023-11-22T08:52:08;34.10;;;22.80;;
35290;SDS011;21411;50.024;19.220;2023-11-22T08:54:34;33.20;;;21.90;;
35290;SDS011;21411;50.024;19.220;2023-11-22T08:57:01;30.80;;;22.20;;
35290;SDS011;21411;50.024;19.220;2023-11-22T08:59:28;29.80;;;21.50;;
35290;SDS011;21411;50.024;19.220;2023-11-22T09:01:55;27.60;;;21.90;;
35290;SDS011;21411;50.024;19.220;2023-11-22T09:04:22;30.90;;;22.30;;
35290;SDS011;21411;50.024;19.220;2023-11-22T09:06:50;26.70;;;20.90;;
35290;SDS011;21411;50.024;19.220;2023-11-22T09:09:17;27.50;;;22.00;;
35290;SDS011;21411;50.024;19.220;2023-11-22T09:11:43;27.80;;;20.50;;
35290;SDS011;21411;50.024;19.220;2023-11-22T09:14:10;30.40;;;21.70;;
35290;SDS011;21411;50.024;19.220;2023-11-22T09:16:37;29.10;;;21.20;;
35290;SDS011;21411;50.024;19.220;2023-11-22T09:19:05;28.40;;;21.30;;
35290;SDS011;21411;50.024;19.220;2023-11-22T09:21:34;27.20;;;20.40;;
35290;SDS011;21411;50.024;19.220;2023-11-22T09:24:01;29.50;;;22.70;;
35290;SDS011;21411;50.024;19.220;2023-11-22T09:26:28;28.60;;;21.10;;
35290;SDS011;21411;50.024;19.220;2023-11-22T09:28:55;28.40;;;20.40;;
35290;SDS011;21411;50.024;19.220;2023-11-22T09:31:22;26.00;;;20.10;;
35290;SDS011;21411;50.024;19.220;2023-11-22T09:33:49;26.80;;;21.30;;
35290;SDS011;21411;50.024;19.220;2023-11-22T09:36:16;28.50;;;22.20;;
35290;SDS011;21411;50.024;19.220;2023-11-22T09:38:44;26.90;;;19.30;;
35290;SDS011;21411;50.024;19.220;2023-11-22T09:41:11;25.90;;;19.40;;
35290;SDS011;21411;50.024;19.220;2023-11-22T09:43:37;24.40;;;18.30;;
35290;SDS011;21411;50.024;19.220;2023-11-22T09:46:06;27.80;;;19.40;;
35290;SDS011;21411;50.024;19.220;2023-11-22T09:48:37;25.40;;;20.20;;
35290;SDS011;21411;50.024;19.220;2023-11-22T09:51:19;25.80;;;19.20;;
35290;SDS011;21411;50.024;19.220;2023-11-22T09:56:20;29.20;;;19.90;;
35290;SDS011;21411;50.024;19.220;2023-11-22T09:58:47;26.20;;;18.60;;
35290;SDS011;21411;50.024;19.220;2023-11-22T10:01:18;22.50;;;18.60;;
35290;SDS011;21411;50.024;19.220;2023-11-22T10:03:44;26.00;;;19.80;;
35290;SDS011;21411;50.024;19.220;2023-11-22T10:06:11;22.10;;;17.30;;
35290;SDS011;21411;50.024;19.220;2023-11-22T10:08:38;23.40;;;19.20;;
35290;SDS011;21411;50.024;19.220;2023-11-22T10:11:05;22.70;;;18.30;;
35290;SDS011;21411;50.024;19.220;2023-11-22T10:13:32;24.80;;;18.50;;
35290;SDS011;21411;50.024;19.220;2023-11-22T10:16:12;23.60;;;18.50;;
35290;SDS011;21411;50.024;19.220;2023-11-22T10:18:42;22.90;;;18.70;;
35290;SDS011;21411;50.024;19.220;2023-11-22T10:21:19;25.20;;;20.10;;
35290;SDS011;21411;50.024;19.220;2023-11-22T10:23:54;26.90;;;20.30;;
35290;SDS011;21411;50.024;19.220;2023-11-22T10:26:23;22.30;;;18.50;;
35290;SDS011;21411;50.024;19.220;2023-11-22T10:28:51;24.80;;;19.50;;
35290;SDS011;21411;50.024;19.220;2023-11-22T10:31:19;22.30;;;18.20;;
35290;SDS011;21411;50.024;19.220;2023-11-22T10:33:48;21.20;;;18.00;;
35290;SDS011;21411;50.024;19.220;2023-11-22T10:36:14;22.70;;;18.30;;
35290;SDS011;21411;50.024;19.220;2023-11-22T10:38:45;22.40;;;18.20;;
35290;SDS011;21411;50.024;19.220;2023-11-22T10:43:40;20.80;;;18.20;;
35290;SDS011;21411;50.024;19.220;2023-11-22T10:46:08;21.80;;;17.40;;
35290;SDS011;21411;50.024;19.220;2023-11-22T10:48:39;22.70;;;17.90;;
35290;SDS011;21411;50.024;19.220;2023-11-22T10:51:05;22.70;;;17.40;;
35290;SDS011;21411;50.024;19.220;2023-11-22T10:53:33;22.30;;;16.80;;
35290;SDS011;21411;50.024;19.220;2023-11-22T10:56:16;19.70;;;16.10;;
35290;SDS011;21411;50.024;19.220;2023-11-22T11:01:17;18.80;;;15.90;;
35290;SDS011;21411;50.024;19.220;2023-11-22T11:03:48;20.10;;;15.90;;
35290;SDS011;21411;50.024;19.220;2023-11-22T11:06:26;18.80;;;15.70;;
35290;SDS011;21411;50.024;19.220;2023-11-22T11:09:00;22.60;;;19.30;;
35290;SDS011;21411;50.024;19.220;2023-11-22T11:11:35;23.00;;;18.50;;
35290;SDS011;21411;50.024;19.220;2023-11-22T11:14:02;24.40;;;17.00;;
35290;SDS011;21411;50.024;19.220;2023-11-22T11:16:32;24.60;;;18.70;;
35290;SDS011;21411;50.024;19.220;2023-11-22T11:19:04;22.70;;;17.90;;
35290;SDS011;21411;50.024;19.220;2023-11-22T11:21:32;24.20;;;19.60;;
35290;SDS011;21411;50.024;19.220;2023-11-22T11:23:59;34.30;;;26.00;;
35290;SDS011;21411;50.024;19.220;2023-11-22T11:26:31;20.60;;;17.30;;
35290;SDS011;21411;50.024;19.220;2023-11-22T11:29:00;22.40;;;18.60;;
35290;SDS011;21411;50.024;19.220;2023-11-22T11:31:32;26.00;;;18.60;;
35290;SDS011;21411;50.024;19.220;2023-11-22T11:34:05;19.50;;;16.50;;
35290;SDS011;21411;50.024;19.220;2023-11-22T11:36:32;21.60;;;18.50;;
35290;SDS011;21411;50.024;19.220;2023-11-22T11:39:04;23.60;;;20.00;;
35290;SDS011;21411;50.024;19.220;2023-11-22T11:41:35;25.40;;;20.20;;
35290;SDS011;21411;50.024;19.220;2023-11-22T11:44:08;25.70;;;19.40;;
35290;SDS011;21411;50.024;19.220;2023-11-22T11:46:39;24.60;;;19.80;;
35290;SDS011;21411;50.024;19.220;2023-11-22T11:49:06;26.20;;;20.30;;
35290;SDS011;21411;50.024;19.220;2023-11-22T11:51:34;26.10;;;19.60;;
35290;SDS011;21411;50.024;19.220;2023-11-22T11:54:01;28.60;;;21.90;;
35290;SDS011;21411;50.024;19.220;2023-11-22T11:56:28;26.50;;;20.90;;
35290;SDS011;21411;50.024;19.220;2023-11-22T11:58:56;24.00;;;19.80;;
35290;SDS011;21411;50.024;19.220;2023-11-22T12:01:27;23.00;;;18.40;;
35290;SDS011;21411;50.024;19.220;2023-11-22T12:03:56;24.90;;;19.00;;
35290;SDS011;21411;50.024;19.220;2023-11-22T12:06:22;26.80;;;19.80;;
35290;SDS011;21411;50.024;19.220;2023-11-22T12:08:49;26.50;;;20.60;;
35290;SDS011;21411;50.024;19.220;2023-11-22T12:11:15;25.00;;;20.20;;
35290;SDS011;21411;50.024;19.220;2023-11-22T12:13:44;27.20;;;21.20;;
35290;SDS011;21411;50.024;19.220;2023-11-22T12:16:14;27.80;;;20.40;;
35290;SDS011;21411;50.024;19.220;2023-11-22T12:18:44;27.70;;;19.20;;
35290;SDS011;21411;50.024;19.220;2023-11-22T12:21:12;23.00;;;18.80;;
35290;SDS011;21411;50.024;19.220;2023-11-22T12:23:42;24.90;;;18.60;;
35290;SDS011;21411;50.024;19.220;2023-11-22T12:26:10;23.60;;;18.70;;
35290;SDS011;21411;50.024;19.220;2023-11-22T12:28:39;25.60;;;20.10;;
35290;SDS011;21411;50.024;19.220;2023-11-22T12:31:07;26.30;;;19.20;;
35290;SDS011;21411;50.024;19.220;2023-11-22T12:33:36;21.20;;;16.90;;
35290;SDS011;21411;50.024;19.220;2023-11-22T12:36:03;24.70;;;18.60;;
35290;SDS011;21411;50.024;19.220;2023-11-22T12:38:31;22.30;;;17.10;;
35290;SDS011;21411;50.024;19.220;2023-11-22T12:40:57;22.20;;;16.00;;
35290;SDS011;21411;50.024;19.220;2023-11-22T12:43:25;20.10;;;16.00;;
35290;SDS011;21411;50.024;19.220;2023-11-22T12:45:58;21.10;;;16.20;;
35290;SDS011;21411;50.024;19.220;2023-11-22T12:48:28;23.10;;;17.40;;
35290;SDS011;21411;50.024;19.220;2023-11-22T12:50:56;21.00;;;16.10;;
35290;SDS011;21411;50.024;19.220;2023-11-22T12:53:23;22.10;;;18.10;;
35290;SDS011;21411;50.024;19.220;2023-11-22T12:55:58;20.70;;;18.30;;
35290;SDS011;21411;50.024;19.220;2023-11-22T12:58:25;19.00;;;14.80;;
35290;SDS011;21411;50.024;19.220;2023-11-22T13:00:52;19.80;;;15.30;;
35290;SDS011;21411;50.024;19.220;2023-11-22T13:03:24;21.10;;;16.00;;
35290;SDS011;21411;50.024;19.220;2023-11-22T13:05:52;23.40;;;18.30;;
35290;SDS011;21411;50.024;19.220;2023-11-22T13:08:18;20.20;;;15.20;;
35290;SDS011;21411;50.024;19.220;2023-11-22T13:10:46;22.30;;;17.80;;
35290;SDS011;21411;50.024;19.220;2023-11-22T13:13:15;22.30;;;17.70;;
35290;SDS011;21411;50.024;19.220;2023-11-22T13:15:42;23.00;;;18.10;;
35290;SDS011;21411;50.024;19.220;2023-11-22T13:18:08;20.20;;;16.20;;
35290;SDS011;21411;50.024;19.220;2023-11-22T13:20:35;21.30;;;15.70;;
35290;SDS011;21411;50.024;19.220;2023-11-22T13:23:05;21.00;;;16.10;;
35290;SDS011;21411;50.024;19.220;2023-11-22T13:25:31;21.20;;;16.20;;
35290;SDS011;21411;50.024;19.220;2023-11-22T13:27:58;21.00;;;15.60;;
35290;SDS011;21411;50.024;19.220;2023-11-22T13:30:25;21.60;;;16.70;;
35290;SDS011;21411;50.024;19.220;2023-11-22T13:32:53;22.60;;;16.50;;
35290;SDS011;21411;50.024;19.220;2023-11-22T13:35:23;23.50;;;16.70;;
35290;SDS011;21411;50.024;19.220;2023-11-22T13:37:57;24.70;;;18.80;;
35290;SDS011;21411;50.024;19.220;2023-11-22T13:40:25;25.30;;;17.00;;
35290;SDS011;21411;50.024;19.220;2023-11-22T13:42:56;19.90;;;15.50;;
35290;SDS011;21411;50.024;19.220;2023-11-22T13:45:24;23.20;;;17.60;;
35290;SDS011;21411;50.024;19.220;2023-11-22T13:47:52;24.40;;;17.20;;
35290;SDS011;21411;50.024;19.220;2023-11-22T13:50:40;19.50;;;15.00;;
35290;SDS011;21411;50.024;19.220;2023-11-22T13:53:07;20.60;;;15.80;;
35290;SDS011;21411;50.024;19.220;2023-11-22T13:55:36;19.50;;;16.40;;
35290;SDS011;21411;50.024;19.220;2023-11-22T13:58:03;23.40;;;17.50;;
35290;SDS011;21411;50.024;19.220;2023-11-22T14:00:31;22.00;;;15.70;;
35290;SDS011;21411;50.024;19.220;2023-11-22T14:03:01;23.80;;;17.60;;
35290;SDS011;21411;50.024;19.220;2023-11-22T14:05:33;26.30;;;17.20;;
35290;SDS011;21411;50.024;19.220;2023-11-22T14:08:02;23.70;;;17.80;;
35290;SDS011;21411;50.024;19.220;2023-11-22T14:10:30;22.00;;;16.40;;
35290;SDS011;21411;50.024;19.220;2023-11-22T14:12:57;25.20;;;18.00;;
35290;SDS011;21411;50.024;19.220;2023-11-22T14:15:27;24.20;;;17.20;;
35290;SDS011;21411;50.024;19.220;2023-11-22T14:20:23;28.00;;;18.90;;
35290;SDS011;21411;50.024;19.220;2023-11-22T14:22:50;27.20;;;19.60;;
35290;SDS011;21411;50.024;19.220;2023-11-22T14:25:17;27.10;;;20.70;;